Time;durP1;ratioP1;P1;durP2;ratioP2;P2;SDS_P1;SDS_P2;PMS_P1;PMS_P2;Temp;Humidity;BMP_temperature;BMP_pressure;BME280_temperature;BME280_humidity;BME280_pressure;Samples;Min_cycle;Max_cycle;Signal;HPM_P1;HPM_P2
2022/04/29 11:42:51;;;;;;;3.83;2.47;;;13.40;63.70;;;;;;5122936;27;20142;-60
2022/04/29 11:45:20;;;;;;;2.85;1.98;;;13.50;65.80;;;;;;5121392;27;20051;-58
2022/04/29 11:47:45;;;;;;;3.00;2.03;;;13.70;66.50;;;;;;5101783;27;20077;-58
2022/04/29 11:50:11;;;;;;;4.60;1.92;;;13.80;66.50;;;;;;5114946;27;20070;-58
2022/04/29 11:52:39;;;;;;;5.70;1.95;;;14.10;66.40;;;;;;5119926;27;20460;-58
2022/04/29 11:55:06;;;;;;;1.67;1.40;;;14.20;65.40;;;;;;5109941;27;20431;-57
2022/04/29 11:57:43;;;;;;;1.90;1.42;;;14.40;65.30;;;;;;5128851;27;20027;-57
2022/04/29 12:00:09;;;;;;;2.50;1.80;;;14.50;64.70;;;;;;5123659;27;20116;-58
2022/04/29 12:02:35;;;;;;;2.28;2.08;;;14.60;64.30;;;;;;5112188;27;20118;-57
2022/04/29 12:05:04;;;;;;;4.53;1.67;;;14.60;63.30;;;;;;5121459;27;20102;-58
2022/04/29 12:07:42;;;;;;;2.03;1.35;;;14.70;62.90;;;;;;5125213;27;20106;-58
2022/04/29 12:10:26;;;;;;;2.92;2.08;;;14.70;63.10;;;;;;5113173;27;20120;-58
2022/04/29 12:12:59;;;;;;;6.13;1.83;;;14.80;62.90;;;;;;5119025;27;20028;-58
2022/04/29 12:15:28;;;;;;;2.30;1.58;;;14.80;62.70;;;;;;5102624;27;20092;-58
2022/04/29 12:18:01;;;;;;;2.70;1.55;;;14.80;62.10;;;;;;5112169;27;20027;-59
2022/04/29 12:20:28;;;;;;;1.42;1.10;;;14.90;61.80;;;;;;5112341;27;20090;-59
2022/04/29 12:22:54;;;;;;;7.70;1.42;;;14.90;61.90;;;;;;5120834;27;20122;-58
2022/04/29 12:25:29;;;;;;;3.15;1.10;;;14.90;61.60;;;;;;5130820;27;20026;-58
2022/04/29 12:28:18;;;;;;;3.28;1.42;;;15.00;61.50;;;;;;5121098;27;20370;-58
2022/04/29 12:36:52;;;;;;;2.83;1.60;;;15.10;60.60;;;;;;5125997;27;20046;-58
2022/04/29 12:39:24;;;;;;;1.17;1.08;;;15.10;60.00;;;;;;5125368;27;20110;-58
2022/04/29 12:42:27;;;;;;;3.87;1.63;;;15.20;59.70;;;;;;5121506;27;20043;-58
2022/04/29 12:45:14;;;;;;;1.08;0.95;;;15.40;59.50;;;;;;5086203;27;20416;-58
2022/04/29 12:47:44;;;;;;;1.48;1.35;;;15.50;58.90;;;;;;5126327;27;20470;-58
2022/04/29 12:50:24;;;;;;;6.05;1.13;;;15.50;58.40;;;;;;5118502;27;20027;-59
2022/04/29 12:52:54;;;;;;;1.40;1.30;;;15.60;58.20;;;;;;5113139;27;20051;-58
2022/04/29 12:55:21;;;;;;;1.58;1.15;;;15.60;57.90;;;;;;5099480;28;20073;-58
2022/04/29 12:57:47;;;;;;;2.83;1.40;;;15.70;58.00;;;;;;5108345;27;20081;-58
2022/04/29 13:00:25;;;;;;;2.00;1.45;;;15.80;58.60;;;;;;5097532;28;20073;-58
2022/04/29 13:03:00;;;;;;;1.33;1.23;;;15.80;57.50;;;;;;5100313;28;20473;-58
2022/04/29 13:05:26;;;;;;;1.20;1.08;;;15.80;57.50;;;;;;5078320;28;20039;-58
2022/04/29 13:07:53;;;;;;;1.13;1.00;;;15.90;57.50;;;;;;5102146;28;20136;-58
2022/04/29 13:10:18;;;;;;;1.63;1.42;;;16.20;57.20;;;;;;5112335;28;20027;-58
2022/04/29 13:12:45;;;;;;;3.72;1.30;;;16.60;56.40;;;;;;5093626;28;20416;-59
2022/04/29 13:15:11;;;;;;;1.65;1.33;;;17.00;55.50;;;;;;5119466;27;20042;-58
2022/04/29 13:17:37;;;;;;;1.77;1.20;;;17.30;53.80;;;;;;5131781;27;20042;-58
2022/04/29 13:20:05;;;;;;;1.25;0.90;;;17.60;53.70;;;;;;5114566;27;20100;-58
2022/04/29 13:22:31;;;;;;;3.00;1.75;;;17.80;53.10;;;;;;5122322;27;20130;-58
2022/04/29 13:24:59;;;;;;;1.90;1.25;;;18.00;52.10;;;;;;5123985;27;20110;-58
2022/04/29 13:27:25;;;;;;;2.67;1.33;;;18.20;52.20;;;;;;5109727;28;20144;-62
2022/04/29 13:29:50;;;;;;;4.28;1.35;;;18.40;51.50;;;;;;5111752;28;20031;-62
2022/04/29 13:32:16;;;;;;;1.48;1.38;;;18.50;49.70;;;;;;5094474;28;20481;-61
2022/04/29 13:34:42;;;;;;;2.25;1.60;;;18.60;50.20;;;;;;5111275;28;20035;-61
2022/04/29 13:37:07;;;;;;;1.30;1.20;;;18.70;49.50;;;;;;5100380;27;20039;-62
2022/04/29 13:39:33;;;;;;;1.10;0.90;;;18.80;49.30;;;;;;5062939;28;20114;-58
2022/04/29 13:41:59;;;;;;;1.70;1.40;;;18.90;49.30;;;;;;5098087;28;20119;-62
2022/04/29 13:44:25;;;;;;;3.42;1.63;;;18.90;48.10;;;;;;5102006;28;20020;-62
2022/04/29 13:46:50;;;;;;;1.15;1.05;;;18.90;48.10;;;;;;5100428;27;20162;-62
2022/04/29 13:49:16;;;;;;;2.08;1.00;;;19.00;48.20;;;;;;5100113;27;20557;-61
2022/04/29 13:51:41;;;;;;;2.63;1.40;;;19.10;48.40;;;;;;5095051;28;20036;-58
2022/04/29 13:54:08;;;;;;;1.40;1.30;;;19.10;47.70;;;;;;5092971;28;20043;-58
2022/04/29 13:56:35;;;;;;;2.25;1.23;;;19.20;47.80;;;;;;5078499;28;20035;-58
2022/04/29 13:59:02;;;;;;;0.95;0.95;;;19.30;47.60;;;;;;5094743;28;20028;-58
2022/04/29 14:01:27;;;;;;;1.27;1.17;;;19.40;47.80;;;;;;5097626;28;20047;-61
2022/04/29 14:03:53;;;;;;;1.92;1.58;;;19.50;47.40;;;;;;5098820;28;20814;-62
2022/04/29 14:06:19;;;;;;;2.13;1.58;;;19.70;47.00;;;;;;5100355;27;20031;-62
2022/04/29 14:08:45;;;;;;;2.28;1.48;;;19.80;47.00;;;;;;5110841;28;20334;-59
2022/04/29 14:11:12;;;;;;;0.90;0.90;;;19.70;46.60;;;;;;5090962;28;20066;-59
2022/04/29 14:13:38;;;;;;;7.70;1.65;;;19.70;46.70;;;;;;5090080;28;20036;-59
2022/04/29 14:16:04;;;;;;;1.50;1.40;;;19.50;46.40;;;;;;5105481;28;20039;-58
2022/04/29 14:18:30;;;;;;;1.38;1.27;;;19.40;46.90;;;;;;5111733;28;21479;-59
2022/04/29 14:20:56;;;;;;;1.30;1.20;;;19.30;47.00;;;;;;5091966;28;20042;-58
2022/04/29 14:23:21;;;;;;;2.13;1.65;;;19.10;47.30;;;;;;5120626;27;20026;-59
2022/04/29 14:25:47;;;;;;;2.65;1.52;;;19.00;47.40;;;;;;5105358;28;20055;-58
2022/04/29 14:28:14;;;;;;;1.85;1.05;;;18.90;47.00;;;;;;5092484;28;20039;-58
2022/04/29 14:30:40;;;;;;;2.22;0.90;;;18.80;47.40;;;;;;5093151;28;20020;-58
2022/04/29 14:33:07;;;;;;;1.85;1.20;;;18.70;47.50;;;;;;5093172;28;20027;-58
2022/04/29 14:35:33;;;;;;;2.03;1.50;;;18.60;47.30;;;;;;5111461;28;20370;-58
2022/04/29 14:37:59;;;;;;;4.55;1.05;;;18.50;47.30;;;;;;5111260;28;20027;-58
2022/04/29 14:40:24;;;;;;;1.15;1.05;;;18.40;47.70;;;;;;5111639;27;20059;-61
2022/04/29 14:42:52;;;;;;;1.20;1.10;;;18.40;48.10;;;;;;5110601;28;20051;-61
2022/04/29 14:45:18;;;;;;;1.60;1.25;;;18.40;48.20;;;;;;5111236;28;20028;-61
2022/04/29 14:47:45;;;;;;;2.00;1.38;;;18.40;48.20;;;;;;5075670;28;20032;-61
2022/04/29 14:50:12;;;;;;;1.15;1.00;;;18.30;48.40;;;;;;5110887;28;20015;-62
2022/04/29 14:52:40;;;;;;;1.25;1.15;;;18.30;48.20;;;;;;5111019;28;20035;-60
2022/04/29 14:55:06;;;;;;;1.35;0.95;;;18.20;48.40;;;;;;5111080;28;20031;-62
2022/04/29 14:57:32;;;;;;;1.40;1.30;;;18.10;48.30;;;;;;5093154;28;20039;-61
2022/04/29 14:59:58;;;;;;;1.85;1.20;;;18.00;48.70;;;;;;5110960;28;20462;-60
2022/04/29 15:02:25;;;;;;;4.90;1.23;;;18.00;49.00;;;;;;5111106;28;20534;-61
2022/04/29 15:04:53;;;;;;;1.25;1.15;;;18.00;48.20;;;;;;5109681;28;20023;-61
2022/04/29 15:07:20;;;;;;;0.75;0.75;;;17.90;48.50;;;;;;5110968;28;20422;-61
2022/04/29 15:17:58;;;;;;;0.90;0.88;;;17.70;48.40;;;;;;5090264;28;20038;-61
2022/04/29 15:20:24;;;;;;;2.25;1.10;;;17.60;48.70;;;;;;5090220;28;20409;-61
2022/04/29 15:22:49;;;;;;;2.75;1.40;;;17.50;48.70;;;;;;5099931;28;20024;-61
2022/04/29 15:25:17;;;;;;;1.83;1.63;;;17.50;49.00;;;;;;5110779;28;20020;-61
2022/04/29 15:27:43;;;;;;;1.08;0.98;;;17.60;49.20;;;;;;5108371;28;20034;-61
2022/04/29 15:30:10;;;;;;;1.42;0.90;;;17.60;49.30;;;;;;5092171;28;20036;-61
2022/04/29 15:32:35;;;;;;;0.90;0.90;;;17.60;49.40;;;;;;5110263;28;20035;-61
2022/04/29 15:35:01;;;;;;;2.78;1.30;;;17.60;49.40;;;;;;5111111;28;20036;-62
2022/04/29 15:37:30;;;;;;;1.27;1.00;;;17.60;49.00;;;;;;5090726;28;20110;-61
2022/04/29 15:39:56;;;;;;;1.40;1.20;;;17.50;48.90;;;;;;5092505;28;20036;-61
2022/04/29 15:42:21;;;;;;;2.80;1.02;;;17.50;49.20;;;;;;5107285;28;20055;-61
2022/04/29 15:44:47;;;;;;;1.30;1.10;;;17.50;49.10;;;;;;5109724;28;20028;-61
2022/04/29 15:47:13;;;;;;;1.90;1.02;;;17.50;48.80;;;;;;5099829;28;20040;-61
2022/04/29 15:49:39;;;;;;;1.08;1.05;;;17.40;49.00;;;;;;5112077;28;20019;-61
2022/04/29 15:52:05;;;;;;;1.20;0.95;;;17.30;49.20;;;;;;5111369;28;20650;-61
2022/04/29 15:54:31;;;;;;;1.67;0.98;;;17.40;49.30;;;;;;5088883;28;20035;-61
2022/04/29 15:56:58;;;;;;;1.10;1.00;;;17.30;49.10;;;;;;5103124;28;20126;-61
2022/04/29 15:59:23;;;;;;;1.23;1.13;;;17.30;49.30;;;;;;5102875;28;20102;-61
2022/04/29 16:01:49;;;;;;;1.27;0.93;;;17.30;49.20;;;;;;5068828;28;20390;-61
2022/04/29 16:04:15;;;;;;;0.93;0.88;;;17.30;49.20;;;;;;5099522;28;20024;-61
2022/04/29 16:06:40;;;;;;;1.05;1.00;;;17.30;49.00;;;;;;5093022;28;20165;-61
2022/04/29 16:09:07;;;;;;;0.63;0.63;;;17.30;49.00;;;;;;5074479;28;20059;-61
2022/04/29 16:11:33;;;;;;;0.80;0.80;;;17.40;48.90;;;;;;5095585;28;21527;-61
2022/04/29 16:13:59;;;;;;;0.90;0.90;;;17.40;48.90;;;;;;5104745;28;20058;-62
2022/04/29 16:16:24;;;;;;;1.05;1.05;;;17.40;48.60;;;;;;5103104;28;20348;-62
2022/04/29 16:21:36;;;;;;;2.40;0.90;;;17.40;48.40;;;;;;5104110;28;20579;-62
2022/04/29 16:26:47;;;;;;;2.42;1.13;;;17.30;48.50;;;;;;5112415;27;20115;-62
2022/04/29 16:29:14;;;;;;;1.50;0.93;;;17.20;48.50;;;;;;5131299;27;20105;-62
2022/04/29 16:31:40;;;;;;;1.15;0.80;;;17.10;48.60;;;;;;5116254;27;20043;-59
2022/04/29 16:34:06;;;;;;;1.83;1.33;;;17.10;49.00;;;;;;5110337;27;20155;-61
2022/04/29 16:36:33;;;;;;;2.13;1.05;;;17.00;49.10;;;;;;5106145;27;20074;-62
2022/04/29 16:38:59;;;;;;;0.75;0.75;;;16.90;49.20;;;;;;5074313;28;20039;-59
2022/04/29 16:41:25;;;;;;;1.23;1.13;;;16.90;49.30;;;;;;5107642;27;20073;-59
2022/04/29 16:43:52;;;;;;;1.20;0.98;;;16.80;49.60;;;;;;5121262;27;20585;-62
2022/04/29 16:46:19;;;;;;;1.13;0.90;;;16.70;49.80;;;;;;5112725;28;20119;-62
2022/04/29 16:48:45;;;;;;;1.00;1.00;;;16.70;49.90;;;;;;5106493;28;20058;-62
2022/04/29 16:51:11;;;;;;;1.02;0.93;;;16.70;50.20;;;;;;5118471;27;20045;-61
2022/04/29 16:53:39;;;;;;;1.08;0.95;;;16.70;50.30;;;;;;5109290;27;20032;-62
2022/04/29 16:56:06;;;;;;;0.80;0.80;;;16.60;50.30;;;;;;5102371;27;20019;-62
2022/04/29 16:58:46;;;;;;;0.73;0.60;;;16.50;50.40;;;;;;5096855;27;20573;-62
2022/04/29 17:01:17;;;;;;;2.50;1.35;;;16.50;50.60;;;;;;5095011;28;20535;-62
2022/04/29 17:03:45;;;;;;;1.88;1.40;;;16.40;50.70;;;;;;5100118;28;20419;-63
2022/04/29 17:06:10;;;;;;;2.22;1.60;;;16.30;50.90;;;;;;5095680;28;20028;-62
2022/04/29 17:08:36;;;;;;;1.33;1.10;;;16.30;50.90;;;;;;5082783;28;20577;-62
2022/04/29 17:11:02;;;;;;;1.83;1.30;;;16.30;50.90;;;;;;5098346;28;20584;-62
2022/04/29 17:13:29;;;;;;;2.17;1.63;;;16.20;51.00;;;;;;5111780;27;20394;-62
2022/04/29 17:15:56;;;;;;;3.75;1.30;;;16.20;51.10;;;;;;5087527;28;20038;-62
2022/04/29 17:18:23;;;;;;;1.27;1.00;;;16.20;51.20;;;;;;5083994;28;20035;-63
2022/04/29 17:20:49;;;;;;;2.03;1.30;;;16.10;51.20;;;;;;5100527;27;20027;-62
2022/04/29 17:23:19;;;;;;;1.60;1.50;;;16.10;51.30;;;;;;5108633;28;20365;-59
2022/04/29 17:25:45;;;;;;;3.05;1.48;;;16.10;51.20;;;;;;5087307;28;20071;-59
2022/04/29 17:28:11;;;;;;;2.95;1.58;;;16.10;51.20;;;;;;5109753;28;20051;-59
2022/04/29 17:30:37;;;;;;;2.45;1.40;;;16.00;51.10;;;;;;5115413;27;20038;-62
2022/04/29 17:33:03;;;;;;;4.80;1.25;;;16.00;51.00;;;;;;5110271;27;20424;-62
2022/04/29 17:35:32;;;;;;;1.17;1.08;;;15.90;50.90;;;;;;5101825;27;20023;-62
2022/04/29 17:37:58;;;;;;;2.70;1.23;;;15.90;50.70;;;;;;5102432;27;20040;-63
2022/04/29 17:43:10;;;;;;;1.90;1.23;;;15.90;50.70;;;;;;5094341;28;20397;-62
2022/04/29 17:45:36;;;;;;;1.88;1.20;;;15.80;50.80;;;;;;5110582;27;20035;-63
2022/04/29 17:48:04;;;;;;;3.30;1.15;;;15.80;50.90;;;;;;5100061;27;20020;-62
2022/04/29 17:50:31;;;;;;;1.65;1.02;;;15.70;50.90;;;;;;5092592;27;20033;-62
2022/04/29 17:52:59;;;;;;;2.15;1.13;;;15.70;50.90;;;;;;5106166;28;20574;-62
2022/04/29 17:55:30;;;;;;;1.98;1.25;;;15.60;50.90;;;;;;5104912;28;20098;-62
2022/04/29 17:57:57;;;;;;;4.13;1.83;;;15.50;50.90;;;;;;5102143;27;20024;-63
2022/04/29 18:00:23;;;;;;;1.10;1.00;;;15.50;51.10;;;;;;5097279;27;20139;-62
2022/04/29 18:02:50;;;;;;;0.90;0.88;;;15.40;51.30;;;;;;5106091;28;20522;-62
2022/04/29 18:05:16;;;;;;;1.08;0.68;;;15.40;51.30;;;;;;5097140;27;20031;-62
2022/04/29 18:07:43;;;;;;;1.00;0.90;;;15.30;51.40;;;;;;5098227;27;20118;-62
2022/04/29 18:10:10;;;;;;;1.65;1.52;;;15.20;51.40;;;;;;5132148;27;20110;-63
2022/04/29 18:12:36;;;;;;;1.55;1.45;;;15.20;51.50;;;;;;5101600;27;20491;-61
2022/04/29 18:15:03;;;;;;;1.27;1.17;;;15.10;51.50;;;;;;5111725;28;20057;-61
2022/04/29 18:17:28;;;;;;;1.73;1.10;;;15.10;51.50;;;;;;5102668;27;20028;-61
2022/04/29 18:19:55;;;;;;;0.90;0.80;;;15.10;51.50;;;;;;5095273;27;20043;-61
2022/04/29 18:22:21;;;;;;;1.23;1.13;;;15.00;51.60;;;;;;5112066;27;20118;-61
2022/04/29 18:24:48;;;;;;;1.27;1.10;;;15.00;51.60;;;;;;5092170;28;20497;-61
2022/04/29 18:27:15;;;;;;;1.30;1.00;;;14.90;51.60;;;;;;5123959;27;20024;-61
2022/04/29 18:29:41;;;;;;;1.02;0.80;;;14.90;51.60;;;;;;5090321;28;20035;-61
2022/04/29 18:32:08;;;;;;;0.93;0.93;;;14.80;51.60;;;;;;5105779;28;20036;-60
2022/04/29 18:34:34;;;;;;;1.50;1.27;;;14.80;51.90;;;;;;5093735;27;20458;-61
2022/04/29 18:37:00;;;;;;;1.10;0.90;;;14.70;51.80;;;;;;5081769;28;20082;-61
2022/04/29 18:39:26;;;;;;;1.80;1.50;;;14.70;51.90;;;;;;5097276;27;20043;-61
2022/04/29 18:41:52;;;;;;;1.33;1.23;;;14.70;52.00;;;;;;5101040;27;20093;-61
2022/04/29 18:44:18;;;;;;;1.45;1.00;;;14.60;52.10;;;;;;5091505;28;20115;-60
2022/04/29 18:46:44;;;;;;;1.15;1.00;;;14.50;52.30;;;;;;5086972;28;20514;-58
2022/04/29 18:49:09;;;;;;;2.45;0.93;;;14.50;52.50;;;;;;5094208;28;20390;-58
2022/04/29 18:51:37;;;;;;;1.20;0.98;;;14.50;52.60;;;;;;5095116;27;20074;-58
2022/04/29 18:54:03;;;;;;;1.48;1.38;;;14.40;52.70;;;;;;5100645;28;20040;-58
2022/04/29 18:56:29;;;;;;;0.68;0.68;;;14.40;52.90;;;;;;5110527;27;20440;-59
2022/04/29 18:58:55;;;;;;;1.15;1.05;;;14.30;53.10;;;;;;5091546;27;20023;-58
2022/04/29 19:01:21;;;;;;;3.15;1.13;;;14.30;53.40;;;;;;5106096;27;20038;-58
2022/04/29 19:03:47;;;;;;;1.00;0.77;;;14.20;53.60;;;;;;5075746;28;20508;-58
2022/04/29 19:06:15;;;;;;;1.10;0.95;;;14.20;53.70;;;;;;5100223;28;20027;-58
2022/04/29 19:08:41;;;;;;;0.65;0.65;;;14.10;53.80;;;;;;5113342;27;20110;-58
2022/04/29 19:11:07;;;;;;;0.80;0.80;;;14.10;53.90;;;;;;5110753;27;20058;-58
2022/04/29 19:13:32;;;;;;;1.95;0.85;;;14.00;54.10;;;;;;5088812;28;20032;-58
2022/04/29 19:15:58;;;;;;;0.90;0.90;;;14.00;54.20;;;;;;5080520;27;20049;-57
2022/04/29 19:18:24;;;;;;;1.42;1.00;;;13.90;54.30;;;;;;5100024;28;20429;-58
2022/04/29 19:20:50;;;;;;;0.85;0.80;;;13.80;54.60;;;;;;5088900;28;20028;-58
2022/04/29 19:23:15;;;;;;;0.82;0.82;;;13.80;54.80;;;;;;5090199;28;20017;-58
2022/04/29 19:25:43;;;;;;;1.98;0.80;;;13.70;54.80;;;;;;5094905;28;20035;-58
2022/04/29 19:28:09;;;;;;;1.23;0.95;;;13.70;55.00;;;;;;5101500;27;20424;-58
2022/04/29 19:30:35;;;;;;;1.00;1.00;;;13.60;55.70;;;;;;5089107;28;20054;-58
2022/04/29 19:33:01;;;;;;;1.05;0.93;;;13.60;55.30;;;;;;5105449;28;20048;-58
2022/04/29 19:35:26;;;;;;;1.00;0.90;;;13.50;55.50;;;;;;5108221;28;20131;-58
2022/04/29 19:37:53;;;;;;;3.15;1.10;;;13.50;55.70;;;;;;5108183;28;20039;-58
2022/04/29 19:40:19;;;;;;;1.42;0.90;;;13.40;55.90;;;;;;5090770;28;20037;-58
2022/04/29 19:42:46;;;;;;;4.47;1.05;;;13.40;56.10;;;;;;5103260;28;20040;-58
2022/04/29 19:45:12;;;;;;;1.20;1.10;;;13.30;56.30;;;;;;5107185;28;20036;-57
2022/04/29 19:47:41;;;;;;;0.75;0.75;;;13.20;56.40;;;;;;5116087;28;20027;-58
2022/04/29 19:50:07;;;;;;;0.93;0.90;;;13.20;56.60;;;;;;5111885;28;20024;-57
2022/04/29 19:52:33;;;;;;;1.17;0.98;;;13.10;56.90;;;;;;5102934;28;20425;-58
2022/04/29 19:54:59;;;;;;;3.50;1.52;;;13.10;57.50;;;;;;5095824;28;20077;-57
2022/04/29 20:00:11;;;;;;;2.08;1.00;;;13.00;57.10;;;;;;5089747;28;20043;-58
2022/04/29 20:05:23;;;;;;;1.98;1.00;;;13.00;57.30;;;;;;5109704;27;20070;-58
2022/04/29 20:07:49;;;;;;;1.20;1.05;;;13.00;57.50;;;;;;5110300;27;20116;-58
2022/04/29 20:10:15;;;;;;;2.38;0.88;;;13.00;57.50;;;;;;5099583;28;20033;-61
2022/04/29 20:12:41;;;;;;;1.45;0.82;;;12.90;57.70;;;;;;5096854;28;20035;-61
2022/04/29 20:15:07;;;;;;;1.70;1.17;;;12.90;57.80;;;;;;5092304;28;20194;-58
2022/04/29 20:17:33;;;;;;;1.33;1.13;;;12.80;57.80;;;;;;5093306;28;20063;-58
2022/04/29 20:19:58;;;;;;;1.83;1.10;;;12.80;58.00;;;;;;5109151;28;20418;-58
2022/04/29 20:22:24;;;;;;;1.65;1.42;;;12.80;58.10;;;;;;5092598;28;20077;-57
2022/04/29 20:24:51;;;;;;;1.10;1.00;;;12.80;58.30;;;;;;5104389;27;20513;-58
2022/04/29 20:27:18;;;;;;;1.73;1.33;;;12.80;58.30;;;;;;5112241;28;20032;-58
2022/04/29 20:29:44;;;;;;;2.03;1.40;;;12.80;58.40;;;;;;5091071;28;20036;-58
2022/04/29 20:32:10;;;;;;;1.67;1.00;;;12.70;58.50;;;;;;5090861;28;20482;-61
2022/04/29 20:34:37;;;;;;;1.27;1.10;;;12.70;58.60;;;;;;5115000;27;20076;-61
2022/04/29 20:37:03;;;;;;;2.58;1.08;;;12.70;58.70;;;;;;5113428;27;20478;-60
2022/04/29 20:44:57;;;;;;;2.33;1.27;;;12.60;59.10;;;;;;5114955;27;20054;-61
2022/04/29 20:47:22;;;;;;;1.65;1.25;;;12.60;59.20;;;;;;5104775;27;20028;-61
2022/04/29 20:49:49;;;;;;;2.05;1.30;;;12.60;59.30;;;;;;5111045;27;20073;-60
2022/04/29 20:52:15;;;;;;;2.67;2.00;;;12.60;59.40;;;;;;5078740;28;20431;-61
2022/04/29 20:54:44;;;;;;;2.47;1.40;;;12.50;59.50;;;;;;5093075;28;20578;-61
2022/04/29 20:57:10;;;;;;;4.15;1.60;;;12.50;59.60;;;;;;5096027;27;20523;-60
2022/04/29 20:59:38;;;;;;;1.48;1.20;;;12.50;59.70;;;;;;5099761;28;20485;-61
2022/04/29 21:02:04;;;;;;;0.80;0.80;;;12.40;59.70;;;;;;5102364;27;20035;-61
2022/04/29 21:04:29;;;;;;;1.58;1.45;;;12.40;59.90;;;;;;5109404;28;20016;-60
2022/04/29 21:06:55;;;;;;;1.65;1.38;;;12.40;60.00;;;;;;5105864;28;20080;-57
2022/04/29 21:09:21;;;;;;;3.50;1.40;;;12.30;60.00;;;;;;5106973;27;20160;-57
2022/04/29 21:11:47;;;;;;;1.20;1.10;;;12.30;60.00;;;;;;5105398;27;20169;-58
2022/04/29 21:14:13;;;;;;;6.47;1.67;;;12.20;60.10;;;;;;5104372;27;20072;-57
2022/04/29 21:16:40;;;;;;;2.38;1.40;;;12.10;60.20;;;;;;5109161;27;20527;-58
2022/04/29 21:19:06;;;;;;;2.10;1.38;;;12.10;60.40;;;;;;5104749;27;20032;-58
2022/04/29 21:21:33;;;;;;;2.03;1.20;;;12.10;60.40;;;;;;5115396;27;20035;-57
2022/04/29 21:23:59;;;;;;;1.20;0.90;;;12.10;60.50;;;;;;5097703;28;20035;-58
2022/04/29 21:26:25;;;;;;;1.58;1.13;;;12.10;60.50;;;;;;5111635;27;20518;-58
2022/04/29 21:31:35;;;;;;;1.65;1.00;;;12.00;60.50;;;;;;5119046;27;20050;-58
2022/04/29 21:34:01;;;;;;;3.83;1.65;;;11.90;60.60;;;;;;5099038;27;20036;-57
2022/04/29 21:36:27;;;;;;;2.10;1.55;;;11.90;60.70;;;;;;5111728;28;20034;-58
2022/04/29 21:38:52;;;;;;;0.85;0.70;;;11.80;60.50;;;;;;5118184;27;20024;-58
2022/04/29 21:41:18;;;;;;;0.65;0.65;;;11.80;60.60;;;;;;5092055;28;20387;-58
2022/04/29 21:43:44;;;;;;;0.93;0.70;;;11.80;60.50;;;;;;5102484;28;20024;-57
2022/04/29 21:46:10;;;;;;;1.75;1.20;;;11.80;60.50;;;;;;5104164;28;20161;-58
2022/04/29 21:48:38;;;;;;;2.47;1.08;;;11.80;60.60;;;;;;5064279;27;20020;-58
2022/04/29 21:51:04;;;;;;;0.77;0.77;;;11.80;60.60;;;;;;5110481;28;20043;-58
2022/04/29 21:53:30;;;;;;;0.70;0.70;;;11.80;60.50;;;;;;5108912;28;20024;-58
2022/04/29 21:55:56;;;;;;;0.80;0.80;;;11.70;60.50;;;;;;5110078;28;20012;-57
2022/04/29 21:58:22;;;;;;;0.88;0.68;;;11.70;60.70;;;;;;5104271;28;20031;-57
2022/04/29 22:00:48;;;;;;;2.72;0.80;;;11.70;60.80;;;;;;5105283;28;20123;-57
2022/04/29 22:03:15;;;;;;;0.70;0.70;;;11.60;60.80;;;;;;5084583;28;20020;-57
2022/04/29 22:05:46;;;;;;;0.63;0.63;;;11.60;60.90;;;;;;5101161;27;20032;-57
2022/04/29 22:08:12;;;;;;;1.65;0.68;;;11.60;60.90;;;;;;5093209;28;20020;-57
2022/04/29 22:10:38;;;;;;;3.30;0.90;;;11.60;61.10;;;;;;5096326;28;20081;-57
2022/04/29 22:13:04;;;;;;;1.08;1.00;;;11.50;61.10;;;;;;5098081;28;20059;-57
2022/04/29 22:15:30;;;;;;;1.10;0.98;;;11.50;61.20;;;;;;5087839;28;20050;-57
2022/04/29 22:17:56;;;;;;;0.45;0.38;;;11.50;61.20;;;;;;5101702;28;20032;-57
2022/04/29 22:20:22;;;;;;;2.03;1.23;;;11.50;61.40;;;;;;5123936;27;20053;-58
2022/04/29 22:22:49;;;;;;;0.40;0.40;;;11.40;61.50;;;;;;5129505;27;20039;-57
2022/04/29 22:25:15;;;;;;;1.05;0.90;;;11.40;61.50;;;;;;5111529;28;20038;-61
2022/04/29 22:27:42;;;;;;;0.80;0.65;;;11.40;61.60;;;;;;5113188;27;20048;-60
2022/04/29 22:30:11;;;;;;;1.95;1.08;;;11.40;61.80;;;;;;5113843;27;20068;-62
2022/04/29 22:32:37;;;;;;;0.73;0.73;;;11.30;61.90;;;;;;5132175;27;20035;-62
2022/04/29 22:35:04;;;;;;;1.20;1.02;;;11.30;61.90;;;;;;5095922;27;20040;-62
2022/04/29 22:37:29;;;;;;;0.93;0.60;;;11.30;62.10;;;;;;5072934;28;20475;-61
2022/04/29 22:39:55;;;;;;;2.05;0.90;;;11.30;62.10;;;;;;5095801;28;20088;-62
2022/04/29 22:42:21;;;;;;;2.15;1.02;;;11.20;62.10;;;;;;5111123;28;20047;-62
2022/04/29 22:44:47;;;;;;;0.63;0.60;;;11.20;62.30;;;;;;5092549;28;20042;-61
2022/04/29 22:47:13;;;;;;;1.65;1.02;;;11.20;62.30;;;;;;5092684;28;20019;-62
2022/04/29 22:49:39;;;;;;;2.42;0.82;;;11.20;62.50;;;;;;5122517;27;20042;-62
2022/04/29 22:52:07;;;;;;;1.58;0.98;;;11.10;62.50;;;;;;5120743;27;20394;-61
2022/04/29 22:54:39;;;;;;;0.65;0.63;;;11.10;62.70;;;;;;5102096;27;20039;-61
2022/04/29 22:57:05;;;;;;;0.82;0.68;;;11.10;62.80;;;;;;5100373;28;20039;-62
2022/04/29 22:59:32;;;;;;;1.30;0.70;;;11.10;62.90;;;;;;5110887;28;20043;-61
2022/04/29 23:01:57;;;;;;;0.82;0.70;;;11.10;62.90;;;;;;5129312;27;20483;-61
2022/04/29 23:04:23;;;;;;;1.05;0.75;;;11.00;63.00;;;;;;5127684;27;20130;-61
2022/04/29 23:06:49;;;;;;;0.50;0.50;;;11.00;63.00;;;;;;5126438;27;20114;-61
2022/04/29 23:09:14;;;;;;;5.22;0.93;;;11.00;63.10;;;;;;5117095;27;20051;-61
2022/04/29 23:11:40;;;;;;;1.67;1.08;;;10.90;63.10;;;;;;5116723;27;20038;-61
2022/04/29 23:14:06;;;;;;;0.70;0.70;;;10.90;63.20;;;;;;5125294;27;20043;-61
2022/04/29 23:16:31;;;;;;;0.75;0.65;;;10.90;63.30;;;;;;5113842;27;20035;-61
2022/04/29 23:19:13;;;;;;;5.03;0.60;;;10.80;63.30;;;;;;5112466;27;20069;-61
2022/04/29 23:21:43;;;;;;;0.60;0.47;;;10.80;63.40;;;;;;5109462;28;20035;-62
2022/04/29 23:24:13;;;;;;;0.50;0.50;;;10.70;63.50;;;;;;5115831;27;20031;-61
2022/04/29 23:26:41;;;;;;;0.60;0.60;;;10.70;63.50;;;;;;5129697;27;20096;-61
2022/04/29 23:29:08;;;;;;;2.05;0.88;;;10.70;63.70;;;;;;5125387;27;20034;-61
2022/04/29 23:31:37;;;;;;;1.45;1.08;;;10.60;63.90;;;;;;5127493;27;20030;-61
2022/04/29 23:34:07;;;;;;;0.70;0.70;;;10.60;64.00;;;;;;5129472;27;20034;-61
2022/04/29 23:36:33;;;;;;;0.82;0.70;;;10.60;64.10;;;;;;5130658;27;20050;-62
2022/04/29 23:38:59;;;;;;;1.27;1.13;;;10.60;64.30;;;;;;5097217;28;20035;-58
2022/04/29 23:41:25;;;;;;;3.05;1.05;;;10.50;64.30;;;;;;5097940;28;20547;-59
2022/04/29 23:43:52;;;;;;;2.13;0.80;;;10.50;64.50;;;;;;5091574;28;20036;-58
2022/04/29 23:46:18;;;;;;;1.80;1.20;;;10.50;64.60;;;;;;5097518;28;20082;-59
2022/04/29 23:48:44;;;;;;;0.88;0.70;;;10.50;64.70;;;;;;5093001;28;20475;-56
2022/04/29 23:51:11;;;;;;;0.50;0.50;;;10.40;64.80;;;;;;5105779;28;20063;-58
2022/04/29 23:53:36;;;;;;;0.50;0.50;;;10.40;64.90;;;;;;5110057;28;20218;-61
2022/04/29 23:56:02;;;;;;;2.20;0.68;;;10.40;64.90;;;;;;5099130;28;20135;-61
2022/04/29 23:58:28;;;;;;;3.65;0.70;;;10.40;65.00;;;;;;5118984;28;20101;-61
